createdAt,value
2019-05-21T00:00:25.417Z,26.10
2019-05-21T00:02:53.066Z,25.08
2019-05-21T00:05:20.606Z,24.60
2019-05-21T00:07:47.834Z,23.92
2019-05-21T00:10:15.054Z,23.22
2019-05-21T00:12:42.274Z,24.30
2019-05-21T00:15:09.983Z,21.48
2019-05-21T00:17:37.646Z,21.90
2019-05-21T00:20:05.322Z,20.60
2019-05-21T00:22:33.121Z,19.82
2019-05-21T00:25:01.402Z,17.92
2019-05-21T00:27:29.342Z,16.57
2019-05-21T00:30:33.948Z,15.23
2019-05-21T00:33:38.162Z,13.32
2019-05-21T00:36:44.125Z,12.58
2019-05-21T00:39:48.495Z,13.60
2019-05-21T00:42:25.875Z,12.98
2019-05-21T00:44:53.079Z,13.95
2019-05-21T00:47:20.667Z,13.32
2019-05-21T00:49:48.480Z,14.28
2019-05-21T00:52:15.705Z,13.00
2019-05-21T00:54:43.609Z,12.75
2019-05-21T00:57:11.825Z,12.78
2019-05-21T00:59:40.494Z,12.63
2019-05-21T01:02:07.987Z,12.75
2019-05-21T01:04:35.498Z,13.22
2019-05-21T01:07:03.382Z,13.20
2019-05-21T01:09:30.678Z,13.93
2019-05-21T01:11:57.875Z,15.43
2019-05-21T01:14:25.447Z,14.93
2019-05-21T01:16:53.929Z,13.98
2019-05-21T01:19:21.819Z,13.88
2019-05-21T01:21:49.772Z,13.53
2019-05-21T01:24:17.298Z,12.95
2019-05-21T01:26:44.883Z,13.55
2019-05-21T01:29:13.066Z,12.63
2019-05-21T01:31:41.123Z,12.60
2019-05-21T01:34:11.294Z,15.30
2019-05-21T01:36:37.888Z,14.80
2019-05-21T01:39:05.543Z,13.55
2019-05-21T01:41:33.142Z,15.53
2019-05-21T01:44:00.701Z,16.70
2019-05-21T01:46:28.591Z,18.92
2019-05-21T01:48:55.768Z,17.25
2019-05-21T01:51:23.415Z,17.82
2019-05-21T01:53:51.497Z,17.17
2019-05-21T01:56:19.039Z,16.60
2019-05-21T01:58:47.673Z,16.52
2019-05-21T02:01:14.900Z,15.28
2019-05-21T02:03:43.393Z,14.95
2019-05-21T02:06:11.594Z,15.38
2019-05-21T02:08:39.457Z,16.23
2019-05-21T02:11:07.610Z,15.75
2019-05-21T02:13:35.175Z,14.85
2019-05-21T02:16:02.446Z,16.15
2019-05-21T02:18:29.901Z,17.10
2019-05-21T02:20:57.494Z,15.75
2019-05-21T02:23:24.692Z,16.65
2019-05-21T02:25:52.316Z,16.77
2019-05-21T02:28:20.186Z,18.65
2019-05-21T02:30:48.543Z,17.35
2019-05-21T02:33:15.999Z,18.17
2019-05-21T02:35:53.495Z,17.77
2019-05-21T02:38:12.719Z,17.75
2019-05-21T02:40:39.964Z,16.85
2019-05-21T02:43:08.724Z,16.48
2019-05-21T02:45:36.540Z,15.80
2019-05-21T02:48:03.876Z,16.85
2019-05-21T02:50:31.853Z,16.80
2019-05-21T02:52:59.171Z,15.23
2019-05-21T02:55:26.702Z,16.15
2019-05-21T02:57:53.962Z,16.95
2019-05-21T03:00:40.878Z,18.82
2019-05-21T03:03:10.058Z,18.32
2019-05-21T03:05:37.752Z,19.40
2019-05-21T03:08:06.267Z,21.42
2019-05-21T03:10:33.728Z,20.30
2019-05-21T03:13:01.392Z,19.75
2019-05-21T03:15:28.587Z,19.12
2019-05-21T03:17:56.214Z,19.73
2019-05-21T03:20:23.736Z,18.10
2019-05-21T03:22:50.974Z,20.20
2019-05-21T03:25:18.906Z,19.92
2019-05-21T03:27:46.439Z,21.02
2019-05-21T03:30:14.931Z,19.35
2019-05-21T03:32:42.819Z,20.05
2019-05-21T03:35:10.524Z,17.80
2019-05-21T03:37:38.473Z,19.15
2019-05-21T03:40:07.059Z,18.95
2019-05-21T03:42:35.230Z,18.80
2019-05-21T03:45:07.327Z,18.23
2019-05-21T03:47:32.400Z,18.37
2019-05-21T03:50:00.195Z,17.12
2019-05-21T03:52:28.047Z,18.15
2019-05-21T03:54:55.763Z,16.42
2019-05-21T03:57:23.262Z,15.10
2019-05-21T03:59:50.453Z,14.43
2019-05-21T04:02:18.068Z,14.43
2019-05-21T04:04:45.414Z,14.07
2019-05-21T04:07:13.353Z,14.03
2019-05-21T04:09:40.675Z,15.00
2019-05-21T04:12:08.537Z,14.47
2019-05-21T04:14:43.299Z,13.03
2019-05-21T04:17:39.038Z,14.30
2019-05-21T04:20:06.877Z,14.83
2019-05-21T04:22:36.035Z,13.95
2019-05-21T04:25:05.170Z,15.13
2019-05-21T04:27:33.045Z,14.33
2019-05-21T04:30:00.359Z,13.62
2019-05-21T04:32:27.903Z,13.80
2019-05-21T04:34:55.432Z,13.22
2019-05-21T04:37:22.911Z,13.50
2019-05-21T04:39:51.159Z,12.43
2019-05-21T04:42:19.244Z,12.23
2019-05-21T04:44:46.749Z,11.57
2019-05-21T04:47:14.647Z,10.68
2019-05-21T04:49:42.440Z,10.45
2019-05-21T04:52:09.623Z,10.45
2019-05-21T04:54:37.445Z,10.23
2019-05-21T04:57:06.857Z,9.15
2019-05-21T04:59:34.436Z,9.95
2019-05-21T05:02:01.744Z,9.13
2019-05-21T05:04:29.061Z,9.35
2019-05-21T05:06:56.638Z,9.15
2019-05-21T05:09:24.383Z,8.73
2019-05-21T05:11:51.960Z,8.53
2019-05-21T05:14:19.534Z,8.05
2019-05-21T05:16:47.408Z,7.37
2019-05-21T05:19:15.279Z,7.40
2019-05-21T05:21:42.838Z,7.47
2019-05-21T05:24:10.366Z,7.65
2019-05-21T05:26:37.547Z,8.13
2019-05-21T05:29:05.138Z,8.58
2019-05-21T05:31:32.312Z,11.55
2019-05-21T05:33:59.838Z,11.50
2019-05-21T05:36:27.411Z,13.65
2019-05-21T05:38:55.008Z,16.48
2019-05-21T05:41:22.606Z,15.48
2019-05-21T05:43:50.938Z,18.40
2019-05-21T05:46:18.129Z,20.95
2019-05-21T05:48:54.971Z,20.12
2019-05-21T05:51:23.095Z,21.57
2019-05-21T05:53:56.892Z,21.30
2019-05-21T05:56:24.662Z,21.15
2019-05-21T05:58:52.291Z,21.70
2019-05-21T06:01:19.816Z,20.40
2019-05-21T06:03:47.010Z,21.70
2019-05-21T06:06:14.537Z,19.60
2019-05-21T06:08:41.970Z,20.65
2019-05-21T06:11:09.805Z,20.35
2019-05-21T06:13:37.194Z,20.25
2019-05-21T06:16:04.507Z,19.52
2019-05-21T06:18:35.563Z,18.20
2019-05-21T06:21:01.987Z,16.75
2019-05-21T06:23:29.519Z,17.35
2019-05-21T06:25:57.748Z,17.27
2019-05-21T06:28:25.327Z,18.05
2019-05-21T06:30:52.849Z,18.12
2019-05-21T06:33:20.060Z,18.67
2019-05-21T06:35:47.437Z,17.12
2019-05-21T06:38:18.059Z,17.27
2019-05-21T06:40:44.139Z,16.62
2019-05-21T06:43:11.262Z,16.57
2019-05-21T06:45:38.508Z,17.00
2019-05-21T06:48:05.773Z,18.17
2019-05-21T06:50:37.109Z,18.07
2019-05-21T06:53:03.484Z,17.55
2019-05-21T06:55:32.160Z,16.52
2019-05-21T06:57:59.753Z,16.52
2019-05-21T07:00:27.335Z,16.37
2019-05-21T07:02:54.881Z,16.60
2019-05-21T07:05:22.205Z,15.35
2019-05-21T07:07:49.438Z,15.38
2019-05-21T07:10:16.870Z,15.38
2019-05-21T07:12:44.580Z,14.33
2019-05-21T07:15:12.314Z,13.68
2019-05-21T07:17:39.929Z,14.45
2019-05-21T07:20:07.387Z,13.68
2019-05-21T07:22:34.674Z,13.48
2019-05-21T07:25:02.257Z,13.60
2019-05-21T07:27:29.778Z,14.05
2019-05-21T07:29:57.203Z,14.55
2019-05-21T07:32:24.848Z,13.10
2019-05-21T07:34:52.715Z,13.90
2019-05-21T07:37:19.892Z,13.35
2019-05-21T07:39:48.036Z,14.23
2019-05-21T07:42:15.521Z,14.25
2019-05-21T07:44:42.755Z,14.83
2019-05-21T07:47:10.648Z,14.95
2019-05-21T07:49:38.174Z,15.38
2019-05-21T07:52:05.375Z,15.20
2019-05-21T07:54:33.133Z,15.70
2019-05-21T07:57:00.648Z,15.50
2019-05-21T07:59:28.147Z,16.05
2019-05-21T08:01:56.032Z,17.52
2019-05-21T08:04:23.124Z,16.52
2019-05-21T08:06:51.370Z,16.50
2019-05-21T08:09:18.724Z,15.83
2019-05-21T08:11:47.118Z,17.67
2019-05-21T08:14:15.261Z,17.23
2019-05-21T08:16:42.658Z,15.83
2019-05-21T08:19:09.986Z,15.05
2019-05-21T08:21:37.648Z,16.90
2019-05-21T08:24:04.943Z,15.95
2019-05-21T08:26:32.499Z,15.88
2019-05-21T08:29:00.364Z,14.13
2019-05-21T08:31:28.252Z,14.87
2019-05-21T08:33:55.629Z,14.25
2019-05-21T08:36:23.579Z,14.23
2019-05-21T08:38:51.097Z,14.35
2019-05-21T08:41:18.615Z,14.60
2019-05-21T08:43:47.550Z,14.50
2019-05-21T08:46:15.653Z,14.93
2019-05-21T08:48:43.070Z,15.25
2019-05-21T08:51:10.761Z,14.15
2019-05-21T08:53:38.863Z,13.78
2019-05-21T08:56:07.072Z,14.18
2019-05-21T08:58:34.904Z,15.38
2019-05-21T09:01:02.456Z,16.07
2019-05-21T09:03:29.661Z,16.42
2019-05-21T09:05:57.412Z,16.65
2019-05-21T09:08:24.575Z,15.98
2019-05-21T09:10:52.098Z,15.65
2019-05-21T09:13:19.624Z,15.20
2019-05-21T09:15:47.729Z,15.25
2019-05-21T09:18:15.952Z,15.53
2019-05-21T09:20:43.503Z,15.08
2019-05-21T09:23:10.743Z,15.20
2019-05-21T09:25:38.403Z,14.38
2019-05-21T09:28:06.110Z,15.75
2019-05-21T09:30:33.306Z,15.13
2019-05-21T09:33:00.807Z,15.15
2019-05-21T09:35:28.008Z,13.72
2019-05-21T09:37:55.446Z,14.33
2019-05-21T09:40:24.762Z,13.90
2019-05-21T09:42:52.270Z,13.35
2019-05-21T09:45:20.187Z,13.30
2019-05-21T09:47:47.548Z,13.10
2019-05-21T09:50:15.190Z,11.85
2019-05-21T09:52:42.898Z,11.43
2019-05-21T09:55:10.962Z,10.98
2019-05-21T09:57:44.202Z,10.18
2019-05-21T10:00:33.642Z,9.70
2019-05-21T10:03:01.223Z,10.45
2019-05-21T10:05:28.396Z,8.80
2019-05-21T10:07:55.878Z,9.00
2019-05-21T10:10:23.358Z,9.10
2019-05-21T10:12:50.923Z,9.38
2019-05-21T10:15:18.608Z,9.33
2019-05-21T10:17:46.143Z,9.98
2019-05-21T10:20:14.024Z,10.80
2019-05-21T10:22:41.833Z,10.88
2019-05-21T10:25:09.451Z,12.35
2019-05-21T10:27:37.178Z,11.15
2019-05-21T10:30:06.166Z,13.10
2019-05-21T10:32:34.087Z,13.10
2019-05-21T10:35:01.640Z,13.13
2019-05-21T10:37:29.544Z,11.73
2019-05-21T10:39:57.022Z,12.58
2019-05-21T10:42:24.457Z,11.65
2019-05-21T10:44:51.676Z,11.68
2019-05-21T10:47:19.163Z,10.98
2019-05-21T10:49:47.039Z,11.53
2019-05-21T10:52:14.615Z,11.30
2019-05-21T10:54:41.810Z,10.72
2019-05-21T10:57:09.019Z,10.55
2019-05-21T10:59:36.210Z,11.18
2019-05-21T11:02:13.804Z,10.30
2019-05-21T11:05:00.704Z,10.38
2019-05-21T11:07:28.303Z,10.38
2019-05-21T11:09:55.782Z,10.43
2019-05-21T11:12:23.435Z,10.32
2019-05-21T11:14:51.556Z,9.98
2019-05-21T11:17:19.527Z,10.45
2019-05-21T11:19:47.079Z,10.28
2019-05-21T11:22:15.069Z,10.15
2019-05-21T11:24:42.939Z,10.50
2019-05-21T11:27:10.579Z,10.98
2019-05-21T11:29:37.727Z,10.18
2019-05-21T11:32:05.011Z,11.12
2019-05-21T11:34:32.257Z,9.88
2019-05-21T11:36:59.819Z,9.88
2019-05-21T11:39:27.373Z,10.32
2019-05-21T11:41:56.583Z,11.22
2019-05-21T11:44:24.144Z,11.93
2019-05-21T11:46:52.259Z,11.70
2019-05-21T11:49:19.487Z,13.68
2019-05-21T11:51:46.923Z,12.93
2019-05-21T11:54:15.057Z,15.45
2019-05-21T11:56:42.245Z,14.05
2019-05-21T11:59:10.352Z,16.05
2019-05-21T12:01:38.216Z,14.70
2019-05-21T12:04:06.020Z,15.20
2019-05-21T12:06:33.857Z,15.25
2019-05-21T12:09:01.671Z,15.10
2019-05-21T12:11:29.639Z,15.20
2019-05-21T12:13:57.688Z,15.08
2019-05-21T12:16:25.480Z,16.97
2019-05-21T12:18:53.095Z,16.40
2019-05-21T12:21:21.034Z,15.53
2019-05-21T12:23:49.182Z,15.15
2019-05-21T12:26:16.382Z,16.07
2019-05-21T12:28:43.695Z,15.95
2019-05-21T12:31:11.013Z,16.80
2019-05-21T12:33:38.695Z,15.63
2019-05-21T12:36:07.421Z,18.30
2019-05-21T12:38:35.200Z,17.75
2019-05-21T12:41:02.677Z,16.95
2019-05-21T12:43:29.996Z,17.62
2019-05-21T12:45:57.268Z,16.40
2019-05-21T12:48:24.784Z,16.23
2019-05-21T12:50:52.049Z,17.40
2019-05-21T12:53:20.072Z,16.23
2019-05-21T12:55:47.602Z,15.48
2019-05-21T12:58:15.066Z,15.35
2019-05-21T13:00:42.453Z,16.10
2019-05-21T13:03:09.987Z,15.70
2019-05-21T13:05:38.203Z,15.83
2019-05-21T13:08:05.721Z,17.20
2019-05-21T13:10:34.172Z,16.85
2019-05-21T13:13:01.579Z,15.35
2019-05-21T13:15:29.151Z,16.65
2019-05-21T13:17:56.740Z,15.15
2019-05-21T13:20:24.278Z,15.60
2019-05-21T13:22:52.200Z,15.78
2019-05-21T13:25:20.026Z,15.65
2019-05-21T13:27:47.894Z,16.70
2019-05-21T13:30:16.447Z,16.37
2019-05-21T13:32:44.027Z,16.60
2019-05-21T13:35:11.740Z,17.00
2019-05-21T13:37:39.715Z,18.17
2019-05-21T13:40:09.067Z,16.82
2019-05-21T13:42:36.672Z,17.37
2019-05-21T13:45:05.163Z,15.98
2019-05-21T13:47:32.349Z,17.87
2019-05-21T13:49:59.894Z,16.90
2019-05-21T13:52:27.439Z,17.52
2019-05-21T13:54:54.612Z,17.32
2019-05-21T13:57:22.385Z,17.07
2019-05-21T13:59:49.967Z,18.30
2019-05-21T14:02:19.762Z,17.25
2019-05-21T14:04:46.980Z,17.80
2019-05-21T14:07:14.481Z,19.67
2019-05-21T14:09:42.660Z,18.60
2019-05-21T14:12:09.992Z,20.15
2019-05-21T14:14:37.482Z,21.20
2019-05-21T14:17:05.047Z,20.02
2019-05-21T14:19:32.292Z,18.92
2019-05-21T14:21:59.720Z,19.98
2019-05-21T14:24:27.232Z,19.17
2019-05-21T14:26:54.747Z,18.73
2019-05-21T14:29:22.661Z,17.67
2019-05-21T14:31:49.956Z,18.50
2019-05-21T14:34:17.241Z,18.70
2019-05-21T14:36:44.834Z,17.75
2019-05-21T14:39:14.673Z,17.87
2019-05-21T14:41:41.896Z,17.30
2019-05-21T14:44:09.445Z,17.52
2019-05-21T14:46:36.635Z,17.12
2019-05-21T14:49:04.811Z,17.57
2019-05-21T14:51:32.675Z,18.05
2019-05-21T14:54:03.902Z,19.00
2019-05-21T14:56:31.120Z,19.82
2019-05-21T14:58:58.393Z,18.35
2019-05-21T15:01:25.730Z,18.32
2019-05-21T15:03:53.339Z,17.65
2019-05-21T15:06:21.027Z,18.65
2019-05-21T15:08:48.552Z,18.90
2019-05-21T15:11:16.154Z,17.45
2019-05-21T15:13:43.425Z,19.10
2019-05-21T15:16:10.993Z,17.90
2019-05-21T15:18:38.209Z,19.05
2019-05-21T15:21:17.072Z,17.30
2019-05-21T15:23:45.128Z,17.75
2019-05-21T15:26:13.310Z,18.87
2019-05-21T15:28:41.200Z,17.12
2019-05-21T15:31:08.754Z,18.32
2019-05-21T15:33:36.251Z,17.07
2019-05-21T15:36:03.787Z,16.07
2019-05-21T15:38:48.445Z,16.55
2019-05-21T15:41:10.181Z,17.23
2019-05-21T15:43:30.571Z,17.05
2019-05-21T15:45:57.738Z,16.17
2019-05-21T15:48:26.866Z,16.55
2019-05-21T15:50:54.755Z,16.85
2019-05-21T15:53:22.354Z,16.73
2019-05-21T15:55:49.447Z,17.35
2019-05-21T15:58:17.709Z,17.37
2019-05-21T16:00:45.175Z,18.35
2019-05-21T16:03:13.056Z,18.20
2019-05-21T16:05:40.557Z,19.20
2019-05-21T16:08:08.039Z,18.98
2019-05-21T16:10:35.596Z,19.10
2019-05-21T16:13:03.158Z,19.90
2019-05-21T16:15:30.363Z,19.98
2019-05-21T16:17:57.780Z,19.95
2019-05-21T16:20:25.082Z,20.23
2019-05-21T16:22:52.685Z,20.97
2019-05-21T16:25:20.195Z,20.85
2019-05-21T16:27:47.822Z,19.05
2019-05-21T16:30:15.058Z,20.48
2019-05-21T16:32:42.339Z,20.95
2019-05-21T16:35:10.761Z,20.95
2019-05-21T16:37:38.350Z,20.15
2019-05-21T16:40:06.514Z,20.88
2019-05-21T16:42:34.020Z,22.25
2019-05-21T16:45:02.107Z,21.87
2019-05-21T16:47:43.941Z,20.80
2019-05-21T16:49:58.691Z,21.65
2019-05-21T16:52:25.855Z,20.57
2019-05-21T16:54:53.427Z,21.20
2019-05-21T16:57:21.195Z,21.07
2019-05-21T16:59:48.767Z,22.05
2019-05-21T17:02:16.939Z,21.17
2019-05-21T17:04:44.870Z,23.25
2019-05-21T17:07:12.485Z,21.48
2019-05-21T17:09:39.778Z,22.20
2019-05-21T17:12:07.282Z,22.10
2019-05-21T17:14:35.054Z,20.48
2019-05-21T17:17:03.018Z,22.25
2019-05-21T17:19:30.847Z,22.40
2019-05-21T17:21:58.071Z,21.75
2019-05-21T17:24:25.619Z,23.20
2019-05-21T17:26:53.182Z,22.45
2019-05-21T17:29:21.032Z,23.73
2019-05-21T17:31:48.399Z,22.42
2019-05-21T17:34:16.203Z,23.77
2019-05-21T17:36:43.771Z,22.77
2019-05-21T17:39:11.226Z,22.00
2019-05-21T17:41:39.395Z,22.02
2019-05-21T17:44:07.071Z,22.22
2019-05-21T17:46:35.028Z,22.73
2019-05-21T17:49:02.657Z,21.73
2019-05-21T17:51:30.004Z,20.27
2019-05-21T17:53:57.746Z,20.65
2019-05-21T17:56:26.023Z,19.80
2019-05-21T17:58:53.965Z,19.57
2019-05-21T18:01:22.231Z,19.82
2019-05-21T18:03:49.542Z,21.20
2019-05-21T18:06:18.205Z,19.82
2019-05-21T18:08:46.695Z,21.60
2019-05-21T18:11:15.441Z,19.52
2019-05-21T18:13:44.064Z,20.95
2019-05-21T18:16:12.763Z,20.32
2019-05-21T18:18:41.281Z,18.20
2019-05-21T18:21:10.639Z,19.45
2019-05-21T18:23:38.328Z,20.43
2019-05-21T18:26:06.053Z,19.48
2019-05-21T18:28:33.875Z,18.92
2019-05-21T18:31:01.495Z,19.80
2019-05-21T18:33:28.994Z,17.73
2019-05-21T18:35:56.470Z,18.37
2019-05-21T18:38:24.439Z,17.80
2019-05-21T18:40:51.615Z,17.80
2019-05-21T18:43:19.139Z,18.35
2019-05-21T18:45:46.707Z,18.15
2019-05-21T18:48:14.620Z,16.50
2019-05-21T18:50:42.261Z,18.10
2019-05-21T18:53:10.198Z,16.73
2019-05-21T18:55:38.415Z,17.80
2019-05-21T18:58:06.001Z,17.30
2019-05-21T19:00:33.667Z,16.35
2019-05-21T19:03:01.616Z,17.77
2019-05-21T19:05:28.830Z,18.25
2019-05-21T19:07:56.395Z,18.23
2019-05-21T19:10:23.921Z,17.37
2019-05-21T19:12:51.187Z,17.27
2019-05-21T19:15:18.719Z,16.80
2019-05-21T19:17:46.174Z,16.55
2019-05-21T19:20:13.904Z,16.32
2019-05-21T19:22:41.394Z,15.35
2019-05-21T19:25:09.122Z,16.07
2019-05-21T19:27:37.278Z,16.30
2019-05-21T19:30:08.416Z,16.02
2019-05-21T19:32:36.060Z,15.72
2019-05-21T19:35:03.954Z,16.20
2019-05-21T19:37:31.943Z,15.48
2019-05-21T19:39:59.174Z,14.85
2019-05-21T19:42:26.388Z,15.58
2019-05-21T19:44:55.053Z,16.05
2019-05-21T19:47:22.553Z,16.55
2019-05-21T19:49:50.474Z,15.90
2019-05-21T19:52:18.351Z,14.68
2019-05-21T19:54:45.571Z,14.87
2019-05-21T19:57:13.233Z,14.15
2019-05-21T19:59:40.595Z,15.50
2019-05-21T20:02:08.799Z,14.83
2019-05-21T20:04:36.082Z,13.58
2019-05-21T20:07:07.102Z,13.90
2019-05-21T20:09:35.490Z,13.72
2019-05-21T20:12:03.712Z,14.15
2019-05-21T20:14:31.238Z,13.32
2019-05-21T20:16:59.192Z,13.95
2019-05-21T20:19:27.036Z,12.40
2019-05-21T20:21:55.222Z,13.68
2019-05-21T20:24:23.455Z,12.53
2019-05-21T20:26:51.071Z,13.03
2019-05-21T20:29:19.811Z,13.18
2019-05-21T20:31:47.348Z,12.55
2019-05-21T20:34:14.567Z,13.88
2019-05-21T20:36:42.879Z,12.55
2019-05-21T20:39:13.970Z,13.25
2019-05-21T20:41:42.878Z,12.65
2019-05-21T20:44:13.921Z,13.45
2019-05-21T20:46:42.326Z,11.85
2019-05-21T20:49:10.165Z,12.28
2019-05-21T20:51:38.221Z,12.55
2019-05-21T20:54:07.544Z,12.47
2019-05-21T20:56:36.304Z,13.20
2019-05-21T20:59:03.976Z,12.80
2019-05-21T21:01:31.889Z,11.50
2019-05-21T21:04:01.102Z,11.85
2019-05-21T21:06:35.494Z,11.85
2019-05-21T21:08:59.773Z,11.93
2019-05-21T21:11:28.745Z,11.00
2019-05-21T21:13:56.038Z,11.40
2019-05-21T21:16:23.324Z,10.82
2019-05-21T21:18:50.911Z,10.50
2019-05-21T21:21:18.812Z,11.10
2019-05-21T21:23:48.615Z,10.65
2019-05-21T21:26:17.211Z,10.35
2019-05-21T21:28:44.703Z,10.88
2019-05-21T21:31:12.950Z,11.08
2019-05-21T21:33:40.512Z,10.20
2019-05-21T21:36:08.201Z,10.38
2019-05-21T21:38:38.356Z,9.98
2019-05-21T21:41:06.759Z,11.15
2019-05-21T21:43:34.011Z,12.15
2019-05-21T21:46:01.392Z,10.63
2019-05-21T21:48:29.584Z,11.43
2019-05-21T21:50:58.143Z,11.48
2019-05-21T21:53:25.647Z,10.90
2019-05-21T21:55:53.236Z,11.25
2019-05-21T21:58:21.379Z,10.88
2019-05-21T22:01:25.229Z,11.28
2019-05-21T22:03:55.803Z,11.33
2019-05-21T22:06:24.698Z,10.70
2019-05-21T22:08:52.363Z,11.18
2019-05-21T22:11:21.153Z,11.25
2019-05-21T22:13:49.816Z,12.05
2019-05-21T22:16:17.727Z,12.63
2019-05-21T22:18:45.779Z,12.15
2019-05-21T22:21:14.039Z,12.28
2019-05-21T22:23:41.958Z,12.65
2019-05-21T22:26:09.883Z,12.43
2019-05-21T22:28:37.563Z,13.60
2019-05-21T22:31:05.962Z,13.85
2019-05-21T22:33:33.631Z,13.00
2019-05-21T22:36:00.954Z,12.63
2019-05-21T22:38:32.114Z,13.78
2019-05-21T22:40:58.390Z,15.00
2019-05-21T22:43:26.559Z,15.88
2019-05-21T22:45:54.510Z,17.07
2019-05-21T22:48:22.087Z,16.70
2019-05-21T22:50:49.983Z,18.60
2019-05-21T22:53:17.177Z,17.65
2019-05-21T22:55:45.402Z,18.87
2019-05-21T22:58:13.298Z,18.27
2019-05-21T23:00:40.845Z,20.10
2019-05-21T23:03:08.977Z,20.92
2019-05-21T23:05:36.534Z,22.05
2019-05-21T23:08:04.578Z,22.50
2019-05-21T23:10:32.131Z,21.87
2019-05-21T23:13:00.052Z,22.25
2019-05-21T23:15:28.168Z,23.77
2019-05-21T23:17:55.940Z,22.80
2019-05-21T23:20:27.284Z,24.07
2019-05-21T23:22:56.394Z,23.73
2019-05-21T23:25:24.550Z,23.98
2019-05-21T23:27:52.523Z,24.55
2019-05-21T23:30:21.370Z,23.67
2019-05-21T23:32:50.222Z,25.20
2019-05-21T23:35:18.589Z,25.48
2019-05-21T23:37:48.350Z,26.05
2019-05-21T23:40:16.402Z,26.25
2019-05-21T23:42:44.592Z,25.70
2019-05-21T23:45:14.797Z,27.45
2019-05-21T23:47:42.302Z,27.17
2019-05-21T23:50:11.293Z,26.85
2019-05-21T23:52:39.846Z,26.60
2019-05-21T23:55:10.584Z,26.33
2019-05-21T23:57:38.883Z,27.00
